sensor_id;sensor_type;location;lat;lon;timestamp;pressure;altitude;pressure_sealevel;temperature;humidity
14838;BME280;7510;59.296;18.106;2022-10-26T00:01:28;100031.09;;;20.35;61.69
14838;BME280;7510;59.296;18.106;2022-10-26T00:03:55;100027.59;;;20.43;61.28
14838;BME280;7510;59.296;18.106;2022-10-26T00:06:22;100037.28;;;20.49;61.07
14838;BME280;7510;59.296;18.106;2022-10-26T00:08:55;100039.31;;;20.66;60.22
14838;BME280;7510;59.296;18.106;2022-10-26T00:11:22;100024.34;;;20.72;59.80
14838;BME280;7510;59.296;18.106;2022-10-26T00:13:48;100035.00;;;20.73;60.15
14838;BME280;7510;59.296;18.106;2022-10-26T00:16:21;100051.84;;;20.80;59.98
14838;BME280;7510;59.296;18.106;2022-10-26T00:18:48;100048.22;;;20.10;61.84
14838;BME280;7510;59.296;18.106;2022-10-26T00:21:13;100038.28;;;26.44;45.27
14838;BME280;7510;59.296;18.106;2022-10-26T00:23:39;100042.00;;;25.69;45.88
14838;BME280;7510;59.296;18.106;2022-10-26T00:26:05;100036.97;;;27.00;43.18
14838;BME280;7510;59.296;18.106;2022-10-26T00:28:30;100042.78;;;26.48;43.96
14838;BME280;7510;59.296;18.106;2022-10-26T00:31:04;100048.22;;;25.78;44.70
14838;BME280;7510;59.296;18.106;2022-10-26T00:33:30;100038.28;;;26.44;43.49
14838;BME280;7510;59.296;18.106;2022-10-26T00:35:55;100045.06;;;25.41;45.44
14838;BME280;7510;59.296;18.106;2022-10-26T00:38:21;100053.66;;;25.51;44.80
14838;BME280;7510;59.296;18.106;2022-10-26T00:40:47;100045.63;;;25.34;45.39
14838;BME280;7510;59.296;18.106;2022-10-26T00:43:33;100039.91;;;24.59;46.34
14838;BME280;7510;59.296;18.106;2022-10-26T00:46:00;100050.28;;;23.77;48.90
14838;BME280;7510;59.296;18.106;2022-10-26T00:48:32;100051.47;;;24.97;46.65
14838;BME280;7510;59.296;18.106;2022-10-26T00:51:02;100048.63;;;25.05;45.61
14838;BME280;7510;59.296;18.106;2022-10-26T00:53:28;100055.94;;;23.80;48.07
14838;BME280;7510;59.296;18.106;2022-10-26T00:55:55;100055.19;;;24.24;47.08
14838;BME280;7510;59.296;18.106;2022-10-26T00:58:21;100050.78;;;25.00;45.76
14838;BME280;7510;59.296;18.106;2022-10-26T01:00:48;100037.84;;;24.68;45.98
14838;BME280;7510;59.296;18.106;2022-10-26T01:03:15;100056.75;;;24.01;47.44
14838;BME280;7510;59.296;18.106;2022-10-26T01:05:43;100053.44;;;24.40;46.41
14838;BME280;7510;59.296;18.106;2022-10-26T01:08:10;100061.00;;;24.31;46.80
14838;BME280;7510;59.296;18.106;2022-10-26T01:10:37;100055.56;;;24.55;46.26
14838;BME280;7510;59.296;18.106;2022-10-26T01:13:05;100058.59;;;24.42;45.97
14838;BME280;7510;59.296;18.106;2022-10-26T01:32:11;100082.00;;;23.62;47.56
14838;BME280;7510;59.296;18.106;2022-10-26T01:34:56;100080.94;;;22.89;49.36
14838;BME280;7510;59.296;18.106;2022-10-26T01:37:29;100080.94;;;23.26;48.43
14838;BME280;7510;59.296;18.106;2022-10-26T01:40:09;100072.66;;;22.89;49.57
14838;BME280;7510;59.296;18.106;2022-10-26T01:42:39;100078.47;;;23.33;47.96
14838;BME280;7510;59.296;18.106;2022-10-26T01:45:08;100080.88;;;23.35;48.11
14838;BME280;7510;59.296;18.106;2022-10-26T01:47:35;100070.59;;;23.44;47.92
14838;BME280;7510;59.296;18.106;2022-10-26T01:50:03;100091.75;;;22.23;50.84
14838;BME280;7510;59.296;18.106;2022-10-26T01:52:30;100078.41;;;23.70;47.27
14838;BME280;7510;59.296;18.106;2022-10-26T02:12:43;100092.75;;;23.35;48.05
14838;BME280;7510;59.296;18.106;2022-10-26T02:15:21;100100.28;;;23.47;47.93
14838;BME280;7510;59.296;18.106;2022-10-26T02:20:25;100104.53;;;22.44;50.43
14838;BME280;7510;59.296;18.106;2022-10-26T02:22:52;100114.50;;;22.74;49.72
14838;BME280;7510;59.296;18.106;2022-10-26T02:25:31;100108.56;;;23.18;48.90
14838;BME280;7510;59.296;18.106;2022-10-26T02:28:05;100110.97;;;23.19;48.44
14838;BME280;7510;59.296;18.106;2022-10-26T02:30:33;100105.41;;;23.57;47.28
14838;BME280;7510;59.296;18.106;2022-10-26T02:33:00;100094.44;;;22.65;49.19
14838;BME280;7510;59.296;18.106;2022-10-26T02:35:31;100129.16;;;22.49;49.97
14838;BME280;7510;59.296;18.106;2022-10-26T02:38:00;100120.44;;;22.93;48.97
14838;BME280;7510;59.296;18.106;2022-10-26T02:40:28;100094.88;;;23.30;47.51
14838;BME280;7510;59.296;18.106;2022-10-26T02:42:58;100127.44;;;22.82;48.78
14838;BME280;7510;59.296;18.106;2022-10-26T02:45:30;100120.06;;;22.23;49.74
14838;BME280;7510;59.296;18.106;2022-10-26T02:47:57;100130.78;;;22.50;49.36
14838;BME280;7510;59.296;18.106;2022-10-26T02:50:38;100130.13;;;22.62;48.63
14838;BME280;7510;59.296;18.106;2022-10-26T02:54:01;100138.75;;;22.35;49.66
14838;BME280;7510;59.296;18.106;2022-10-26T02:56:27;100128.44;;;22.77;48.61
14838;BME280;7510;59.296;18.106;2022-10-26T02:58:59;100127.41;;;22.99;48.07
14838;BME280;7510;59.296;18.106;2022-10-26T03:01:27;100140.72;;;22.97;48.09
14838;BME280;7510;59.296;18.106;2022-10-26T03:03:57;100151.03;;;22.37;49.23
14838;BME280;7510;59.296;18.106;2022-10-26T03:06:23;100145.97;;;22.22;49.14
14838;BME280;7510;59.296;18.106;2022-10-26T03:08:49;100141.91;;;22.79;47.94
14838;BME280;7510;59.296;18.106;2022-10-26T03:11:15;100146.16;;;22.68;48.34
14838;BME280;7510;59.296;18.106;2022-10-26T03:13:41;100141.31;;;22.48;48.45
14838;BME280;7510;59.296;18.106;2022-10-26T03:16:07;100135.16;;;22.17;48.67
14838;BME280;7510;59.296;18.106;2022-10-26T03:18:32;100141.13;;;22.02;49.51
14838;BME280;7510;59.296;18.106;2022-10-26T03:20:58;100145.66;;;22.66;48.32
14838;BME280;7510;59.296;18.106;2022-10-26T03:23:23;100139.19;;;22.28;48.90
14838;BME280;7510;59.296;18.106;2022-10-26T03:25:49;100157.00;;;22.05;49.37
14838;BME280;7510;59.296;18.106;2022-10-26T03:28:14;100133.00;;;21.81;49.70
14838;BME280;7510;59.296;18.106;2022-10-26T03:30:40;100126.88;;;22.51;48.15
14838;BME280;7510;59.296;18.106;2022-10-26T03:33:05;100166.34;;;23.06;46.94
14838;BME280;7510;59.296;18.106;2022-10-26T03:35:30;100153.59;;;22.17;48.53
14838;BME280;7510;59.296;18.106;2022-10-26T03:37:56;100188.13;;;22.48;48.42
14838;BME280;7510;59.296;18.106;2022-10-26T03:40:21;100186.78;;;22.03;48.82
14838;BME280;7510;59.296;18.106;2022-10-26T03:42:47;100172.91;;;22.42;48.24
14838;BME280;7510;59.296;18.106;2022-10-26T03:45:12;100187.13;;;22.61;47.60
14838;BME280;7510;59.296;18.106;2022-10-26T03:47:45;100158.13;;;22.04;48.50
14838;BME280;7510;59.296;18.106;2022-10-26T03:50:13;100194.38;;;21.51;50.26
14838;BME280;7510;59.296;18.106;2022-10-26T03:52:39;100187.78;;;22.07;49.07
14838;BME280;7510;59.296;18.106;2022-10-26T03:55:05;100191.44;;;21.78;49.52
14838;BME280;7510;59.296;18.106;2022-10-26T03:57:30;100192.50;;;22.41;48.16
14838;BME280;7510;59.296;18.106;2022-10-26T03:59:56;100203.81;;;22.81;47.06
14838;BME280;7510;59.296;18.106;2022-10-26T04:02:21;100181.56;;;21.77;49.04
14838;BME280;7510;59.296;18.106;2022-10-26T04:04:47;100208.91;;;21.73;49.61
14838;BME280;7510;59.296;18.106;2022-10-26T04:07:12;100204.75;;;21.54;49.71
14838;BME280;7510;59.296;18.106;2022-10-26T04:09:38;100191.84;;;22.18;47.79
14838;BME280;7510;59.296;18.106;2022-10-26T04:12:03;100208.97;;;22.15;48.38
14838;BME280;7510;59.296;18.106;2022-10-26T04:14:29;100207.03;;;22.16;47.63
14838;BME280;7510;59.296;18.106;2022-10-26T04:16:54;100217.28;;;22.66;47.37
14838;BME280;7510;59.296;18.106;2022-10-26T04:19:19;100219.41;;;22.35;47.98
14838;BME280;7510;59.296;18.106;2022-10-26T04:21:45;100216.25;;;22.11;48.24
14838;BME280;7510;59.296;18.106;2022-10-26T04:24:10;100193.00;;;21.62;49.01
14838;BME280;7510;59.296;18.106;2022-10-26T04:26:36;100224.03;;;22.09;48.38
14838;BME280;7510;59.296;18.106;2022-10-26T04:29:01;100225.84;;;22.31;47.97
14838;BME280;7510;59.296;18.106;2022-10-26T04:31:31;100224.31;;;21.91;48.66
14838;BME280;7510;59.296;18.106;2022-10-26T04:33:57;100228.00;;;21.78;49.09
14838;BME280;7510;59.296;18.106;2022-10-26T04:36:22;100225.47;;;21.98;48.79
14838;BME280;7510;59.296;18.106;2022-10-26T04:38:48;100236.25;;;22.34;48.04
14838;BME280;7510;59.296;18.106;2022-10-26T04:41:13;100240.69;;;22.04;49.10
14838;BME280;7510;59.296;18.106;2022-10-26T04:43:39;100232.38;;;22.35;48.16
14838;BME280;7510;59.296;18.106;2022-10-26T04:46:04;100236.91;;;21.83;49.82
14838;BME280;7510;59.296;18.106;2022-10-26T04:48:29;100245.50;;;21.90;49.13
14838;BME280;7510;59.296;18.106;2022-10-26T04:50:58;100244.66;;;22.54;47.92
14838;BME280;7510;59.296;18.106;2022-10-26T04:53:24;100243.63;;;22.16;48.79
14838;BME280;7510;59.296;18.106;2022-10-26T04:55:55;100229.94;;;22.67;47.33
14838;BME280;7510;59.296;18.106;2022-10-26T04:58:20;100257.22;;;22.21;48.57
14838;BME280;7510;59.296;18.106;2022-10-26T05:00:46;100258.53;;;22.15;48.55
14838;BME280;7510;59.296;18.106;2022-10-26T05:03:11;100254.59;;;21.91;48.83
14838;BME280;7510;59.296;18.106;2022-10-26T05:05:37;100257.94;;;21.80;49.26
14838;BME280;7510;59.296;18.106;2022-10-26T05:08:02;100256.69;;;21.85;49.23
14838;BME280;7510;59.296;18.106;2022-10-26T05:10:28;100250.69;;;21.83;49.05
14838;BME280;7510;59.296;18.106;2022-10-26T05:12:55;100257.41;;;22.16;48.26
14838;BME280;7510;59.296;18.106;2022-10-26T05:15:21;100269.72;;;21.63;49.50
14838;BME280;7510;59.296;18.106;2022-10-26T05:17:53;100283.84;;;21.79;49.26
14838;BME280;7510;59.296;18.106;2022-10-26T05:20:19;100284.53;;;21.92;49.05
14838;BME280;7510;59.296;18.106;2022-10-26T05:22:51;100287.50;;;22.21;48.26
14838;BME280;7510;59.296;18.106;2022-10-26T05:25:17;100288.25;;;21.88;48.88
14838;BME280;7510;59.296;18.106;2022-10-26T05:27:42;100269.00;;;21.96;48.54
14838;BME280;7510;59.296;18.106;2022-10-26T05:30:08;100275.44;;;21.83;48.66
14838;BME280;7510;59.296;18.106;2022-10-26T05:32:33;100284.53;;;21.92;48.44
14838;BME280;7510;59.296;18.106;2022-10-26T05:34:59;100294.06;;;21.04;50.60
14838;BME280;7510;59.296;18.106;2022-10-26T05:37:27;100308.91;;;21.47;50.00
14838;BME280;7510;59.296;18.106;2022-10-26T05:39:53;100310.28;;;21.58;49.83
14838;BME280;7510;59.296;18.106;2022-10-26T05:42:18;100292.16;;;21.57;49.07
14838;BME280;7510;59.296;18.106;2022-10-26T05:44:45;100317.84;;;21.83;49.05
14838;BME280;7510;59.296;18.106;2022-10-26T05:47:10;100316.50;;;21.50;49.64
14838;BME280;7510;59.296;18.106;2022-10-26T05:49:36;100325.56;;;21.50;49.66
14838;BME280;7510;59.296;18.106;2022-10-26T05:52:02;100316.59;;;21.88;48.39
14838;BME280;7510;59.296;18.106;2022-10-26T05:54:27;100332.09;;;21.84;48.59
14838;BME280;7510;59.296;18.106;2022-10-26T05:56:53;100334.34;;;21.83;48.87
14838;BME280;7510;59.296;18.106;2022-10-26T05:59:18;100321.66;;;21.21;49.66
14838;BME280;7510;59.296;18.106;2022-10-26T06:04:28;100351.41;;;21.93;49.15
14838;BME280;7510;59.296;18.106;2022-10-26T06:06:56;100350.78;;;21.66;49.34
14838;BME280;7510;59.296;18.106;2022-10-26T06:09:22;100333.59;;;21.60;49.03
14838;BME280;7510;59.296;18.106;2022-10-26T06:11:48;100353.47;;;21.87;48.69
14838;BME280;7510;59.296;18.106;2022-10-26T06:14:13;100355.66;;;21.69;49.64
14838;BME280;7510;59.296;18.106;2022-10-26T06:27:49;100381.34;;;21.94;48.77
14838;BME280;7510;59.296;18.106;2022-10-26T06:30:17;100380.56;;;21.50;49.62
14838;BME280;7510;59.296;18.106;2022-10-26T06:32:45;100390.81;;;21.80;48.80
14838;BME280;7510;59.296;18.106;2022-10-26T06:35:34;100392.41;;;22.11;48.66
14838;BME280;7510;59.296;18.106;2022-10-26T06:38:07;100389.53;;;21.56;49.31
14838;BME280;7510;59.296;18.106;2022-10-26T06:40:35;100395.94;;;21.51;49.61
14838;BME280;7510;59.296;18.106;2022-10-26T06:43:01;100393.47;;;21.93;48.68
14838;BME280;7510;59.296;18.106;2022-10-26T06:45:27;100390.94;;;21.75;49.03
14838;BME280;7510;59.296;18.106;2022-10-26T06:48:17;100406.31;;;21.76;48.66
14838;BME280;7510;59.296;18.106;2022-10-26T06:50:51;100408.16;;;21.37;49.42
14838;BME280;7510;59.296;18.106;2022-10-26T06:55:52;100404.78;;;21.62;48.72
14838;BME280;7510;59.296;18.106;2022-10-26T06:58:22;100400.56;;;21.86;48.37
14838;BME280;7510;59.296;18.106;2022-10-26T07:00:51;100401.91;;;21.67;48.33
14838;BME280;7510;59.296;18.106;2022-10-26T07:03:18;100414.56;;;21.76;48.76
14838;BME280;7510;59.296;18.106;2022-10-26T07:05:45;100409.47;;;21.91;48.08
14838;BME280;7510;59.296;18.106;2022-10-26T07:08:11;100425.00;;;21.87;48.32
14838;BME280;7510;59.296;18.106;2022-10-26T07:10:37;100431.88;;;21.55;49.12
14838;BME280;7510;59.296;18.106;2022-10-26T07:13:06;100429.78;;;21.74;48.79
14838;BME280;7510;59.296;18.106;2022-10-26T07:15:33;100431.88;;;21.55;49.28
14838;BME280;7510;59.296;18.106;2022-10-26T07:17:58;100436.38;;;21.94;48.13
14838;BME280;7510;59.296;18.106;2022-10-26T07:20:24;100438.91;;;21.83;47.92
14838;BME280;7510;59.296;18.106;2022-10-26T07:22:54;100438.03;;;21.74;47.96
14838;BME280;7510;59.296;18.106;2022-10-26T07:25:20;100443.22;;;21.75;48.30
14838;BME280;7510;59.296;18.106;2022-10-26T07:27:45;100437.25;;;21.82;47.63
14838;BME280;7510;59.296;18.106;2022-10-26T07:30:11;100451.22;;;21.06;50.06
14838;BME280;7510;59.296;18.106;2022-10-26T07:32:37;100436.84;;;21.31;49.18
14838;BME280;7510;59.296;18.106;2022-10-26T07:35:02;100446.78;;;21.76;48.25
14838;BME280;7510;59.296;18.106;2022-10-26T07:37:28;100454.13;;;21.45;48.74
14838;BME280;7510;59.296;18.106;2022-10-26T07:39:53;100458.81;;;21.58;48.12
14838;BME280;7510;59.296;18.106;2022-10-26T07:42:18;100468.53;;;21.64;47.87
14838;BME280;7510;59.296;18.106;2022-10-26T07:44:44;100439.97;;;21.73;47.42
14838;BME280;7510;59.296;18.106;2022-10-26T07:47:09;100457.88;;;21.92;47.03
14838;BME280;7510;59.296;18.106;2022-10-26T07:49:35;100470.41;;;21.98;47.24
14838;BME280;7510;59.296;18.106;2022-10-26T07:52:00;100471.78;;;22.18;46.94
14838;BME280;7510;59.296;18.106;2022-10-26T07:54:25;100461.94;;;22.47;46.22
14838;BME280;7510;59.296;18.106;2022-10-26T07:56:51;100481.94;;;22.09;46.91
14838;BME280;7510;59.296;18.106;2022-10-26T07:59:16;100466.47;;;22.21;46.55
14838;BME280;7510;59.296;18.106;2022-10-26T08:01:42;100471.50;;;22.50;46.32
14838;BME280;7510;59.296;18.106;2022-10-26T08:04:08;100492.25;;;22.25;46.39
14838;BME280;7510;59.296;18.106;2022-10-26T08:06:34;100498.38;;;22.22;46.46
14838;BME280;7510;59.296;18.106;2022-10-26T08:08:59;100494.78;;;22.13;46.93
14838;BME280;7510;59.296;18.106;2022-10-26T08:11:25;100499.09;;;22.06;46.66
14838;BME280;7510;59.296;18.106;2022-10-26T08:13:51;100496.41;;;21.35;48.38
14838;BME280;7510;59.296;18.106;2022-10-26T08:16:17;100487.53;;;22.26;46.64
14838;BME280;7510;59.296;18.106;2022-10-26T08:18:43;100473.56;;;22.91;45.27
14838;BME280;7510;59.296;18.106;2022-10-26T08:21:10;100507.41;;;22.14;46.49
14838;BME280;7510;59.296;18.106;2022-10-26T08:23:36;100509.63;;;21.82;47.51
14838;BME280;7510;59.296;18.106;2022-10-26T08:26:02;100501.72;;;21.67;47.59
14838;BME280;7510;59.296;18.106;2022-10-26T08:28:29;100505.50;;;22.23;46.88
14838;BME280;7510;59.296;18.106;2022-10-26T08:30:55;100507.75;;;21.91;47.85
14838;BME280;7510;59.296;18.106;2022-10-26T08:33:21;100512.09;;;22.36;46.76
14838;BME280;7510;59.296;18.106;2022-10-26T08:35:47;100510.13;;;21.49;47.88
14838;BME280;7510;59.296;18.106;2022-10-26T08:38:13;100511.81;;;21.93;47.64
14838;BME280;7510;59.296;18.106;2022-10-26T08:40:40;100534.84;;;21.97;47.57
14838;BME280;7510;59.296;18.106;2022-10-26T08:45:56;100524.06;;;21.87;47.43
14838;BME280;7510;59.296;18.106;2022-10-26T08:48:28;100528.31;;;21.23;48.70
14838;BME280;7510;59.296;18.106;2022-10-26T08:50:59;100553.81;;;21.64;48.41
14838;BME280;7510;59.296;18.106;2022-10-26T08:53:27;100547.19;;;21.65;48.20
14838;BME280;7510;59.296;18.106;2022-10-26T08:56:00;100549.06;;;21.99;47.32
14838;BME280;7510;59.296;18.106;2022-10-26T08:58:40;100552.75;;;21.38;48.84
14838;BME280;7510;59.296;18.106;2022-10-26T09:01:08;100542.31;;;21.83;47.82
14838;BME280;7510;59.296;18.106;2022-10-26T09:03:34;100570.44;;;21.81;48.24
14838;BME280;7510;59.296;18.106;2022-10-26T09:06:19;100555.66;;;21.55;49.11
14838;BME280;7510;59.296;18.106;2022-10-26T09:14:43;100555.47;;;21.86;48.09
14838;BME280;7510;59.296;18.106;2022-10-26T09:17:48;100557.59;;;22.33;46.65
14838;BME280;7510;59.296;18.106;2022-10-26T09:25:39;100581.72;;;22.58;46.31
14838;BME280;7510;59.296;18.106;2022-10-26T09:28:14;100584.34;;;22.33;47.21
14838;BME280;7510;59.296;18.106;2022-10-26T09:30:43;100564.91;;;22.16;46.98
14838;BME280;7510;59.296;18.106;2022-10-26T09:33:15;100581.66;;;22.06;47.39
14838;BME280;7510;59.296;18.106;2022-10-26T09:38:30;100523.44;;;21.90;46.92
14838;BME280;7510;59.296;18.106;2022-10-26T09:43:54;100581.97;;;21.83;47.82
14838;BME280;7510;59.296;18.106;2022-10-26T09:46:34;100592.91;;;21.96;47.88
14838;BME280;7510;59.296;18.106;2022-10-26T09:49:09;100588.78;;;22.07;46.93
14838;BME280;7510;59.296;18.106;2022-10-26T09:51:37;100587.59;;;22.21;47.05
14838;BME280;7510;59.296;18.106;2022-10-26T09:54:14;100598.53;;;22.48;46.47
14838;BME280;7510;59.296;18.106;2022-10-26T09:56:43;100600.78;;;22.46;46.29
14838;BME280;7510;59.296;18.106;2022-10-26T09:59:10;100603.63;;;22.63;45.89
14838;BME280;7510;59.296;18.106;2022-10-26T10:01:37;100604.03;;;22.48;45.58
14838;BME280;7510;59.296;18.106;2022-10-26T10:04:15;100603.53;;;23.07;44.00
14838;BME280;7510;59.296;18.106;2022-10-26T10:06:49;100604.06;;;22.57;45.04
14838;BME280;7510;59.296;18.106;2022-10-26T10:09:22;100613.53;;;22.94;44.58
14838;BME280;7510;59.296;18.106;2022-10-26T10:11:54;100598.63;;;23.04;43.98
14838;BME280;7510;59.296;18.106;2022-10-26T10:17:03;100614.19;;;23.00;44.44
14838;BME280;7510;59.296;18.106;2022-10-26T10:19:34;100618.50;;;22.62;44.99
14838;BME280;7510;59.296;18.106;2022-10-26T10:22:23;100629.16;;;22.11;45.85
14838;BME280;7510;59.296;18.106;2022-10-26T10:25:00;100625.84;;;22.23;46.01
14838;BME280;7510;59.296;18.106;2022-10-26T10:27:28;100626.94;;;22.35;46.03
14838;BME280;7510;59.296;18.106;2022-10-26T10:29:55;100576.09;;;22.41;45.28
14838;BME280;7510;59.296;18.106;2022-10-26T10:32:26;100612.16;;;22.53;45.01
14838;BME280;7510;59.296;18.106;2022-10-26T10:34:55;100588.50;;;22.08;45.55
14838;BME280;7510;59.296;18.106;2022-10-26T10:40:20;100627.59;;;22.19;45.94
14838;BME280;7510;59.296;18.106;2022-10-26T10:42:46;100628.81;;;22.78;44.69
14838;BME280;7510;59.296;18.106;2022-10-26T10:45:23;100629.09;;;22.69;44.88
14838;BME280;7510;59.296;18.106;2022-10-26T10:48:40;100641.13;;;22.29;45.50
14838;BME280;7510;59.296;18.106;2022-10-26T10:56:28;100658.06;;;21.87;46.29
14838;BME280;7510;59.296;18.106;2022-10-26T11:01:46;100666.53;;;21.90;45.87
14838;BME280;7510;59.296;18.106;2022-10-26T11:04:20;100671.44;;;21.40;47.14
14838;BME280;7510;59.296;18.106;2022-10-26T11:06:53;100677.94;;;21.97;46.09
14838;BME280;7510;59.296;18.106;2022-10-26T11:09:25;100677.47;;;22.17;45.79
14838;BME280;7510;59.296;18.106;2022-10-26T11:12:02;100659.84;;;22.40;45.11
14838;BME280;7510;59.296;18.106;2022-10-26T11:14:33;100673.78;;;21.86;45.82
14838;BME280;7510;59.296;18.106;2022-10-26T11:19:37;100684.94;;;22.03;45.92
14838;BME280;7510;59.296;18.106;2022-10-26T11:22:11;100679.16;;;21.91;45.63
14838;BME280;7510;59.296;18.106;2022-10-26T11:32:29;100629.09;;;21.41;47.01
14838;BME280;7510;59.296;18.106;2022-10-26T11:35:17;100688.47;;;21.42;47.14
14838;BME280;7510;59.296;18.106;2022-10-26T11:45:33;100707.13;;;21.72;46.38
14838;BME280;7510;59.296;18.106;2022-10-26T11:50:47;100697.00;;;22.43;44.99
14838;BME280;7510;59.296;18.106;2022-10-26T11:53:16;100704.44;;;21.93;46.06
14838;BME280;7510;59.296;18.106;2022-10-26T11:55:53;100709.63;;;22.30;45.86
14838;BME280;7510;59.296;18.106;2022-10-26T11:58:25;100714.25;;;22.57;44.83
14838;BME280;7510;59.296;18.106;2022-10-26T12:00:54;100717.00;;;22.21;45.63
14838;BME280;7510;59.296;18.106;2022-10-26T12:03:27;100727.03;;;22.17;46.09
14838;BME280;7510;59.296;18.106;2022-10-26T12:05:55;100732.78;;;21.54;46.58
14838;BME280;7510;59.296;18.106;2022-10-26T12:08:24;100727.34;;;22.02;45.71
14838;BME280;7510;59.296;18.106;2022-10-26T12:18:58;100723.97;;;22.19;44.77
14838;BME280;7510;59.296;18.106;2022-10-26T12:21:26;100739.50;;;22.72;44.04
14838;BME280;7510;59.296;18.106;2022-10-26T12:31:40;100732.41;;;21.74;45.85
14838;BME280;7510;59.296;18.106;2022-10-26T12:47:08;100741.84;;;21.94;45.52
14838;BME280;7510;59.296;18.106;2022-10-26T13:00:16;100755.78;;;22.11;44.84
14838;BME280;7510;59.296;18.106;2022-10-26T13:03:41;100762.16;;;21.98;45.35
14838;BME280;7510;59.296;18.106;2022-10-26T13:08:54;100749.81;;;21.83;45.37
14838;BME280;7510;59.296;18.106;2022-10-26T13:11:29;100747.75;;;22.01;44.97
14838;BME280;7510;59.296;18.106;2022-10-26T13:14:07;100761.22;;;21.63;46.01
14838;BME280;7510;59.296;18.106;2022-10-26T13:16:33;100762.38;;;21.88;45.45
14838;BME280;7510;59.296;18.106;2022-10-26T13:18:59;100767.59;;;22.25;44.76
14838;BME280;7510;59.296;18.106;2022-10-26T13:21:26;100777.94;;;21.80;45.34
14838;BME280;7510;59.296;18.106;2022-10-26T13:23:57;100776.41;;;21.87;45.64
14838;BME280;7510;59.296;18.106;2022-10-26T13:26:30;100766.50;;;21.99;44.55
14838;BME280;7510;59.296;18.106;2022-10-26T13:29:00;100774.16;;;22.02;44.73
14838;BME280;7510;59.296;18.106;2022-10-26T13:34:09;100769.38;;;21.94;44.80
14838;BME280;7510;59.296;18.106;2022-10-26T13:36:50;100781.50;;;21.93;44.49
14838;BME280;7510;59.296;18.106;2022-10-26T13:39:22;100780.34;;;21.09;46.17
14838;BME280;7510;59.296;18.106;2022-10-26T13:41:51;100781.41;;;21.13;46.54
14838;BME280;7510;59.296;18.106;2022-10-26T13:44:41;100788.22;;;20.84;47.30
14838;BME280;7510;59.296;18.106;2022-10-26T13:47:31;100786.81;;;21.63;45.55
14838;BME280;7510;59.296;18.106;2022-10-26T13:50:06;100763.97;;;21.76;44.98
14838;BME280;7510;59.296;18.106;2022-10-26T13:52:40;100782.53;;;21.97;44.95
14838;BME280;7510;59.296;18.106;2022-10-26T13:55:31;100790.41;;;22.26;44.21
14838;BME280;7510;59.296;18.106;2022-10-26T13:58:13;100793.69;;;21.47;45.96
14838;BME280;7510;59.296;18.106;2022-10-26T14:03:33;100798.00;;;22.07;44.52
14838;BME280;7510;59.296;18.106;2022-10-26T14:05:59;100814.53;;;21.93;45.18
14838;BME280;7510;59.296;18.106;2022-10-26T14:08:24;100790.03;;;21.52;45.49
14838;BME280;7510;59.296;18.106;2022-10-26T14:10:56;100810.13;;;21.20;46.54
14838;BME280;7510;59.296;18.106;2022-10-26T14:13:24;100803.72;;;21.25;46.48
14838;BME280;7510;59.296;18.106;2022-10-26T14:15:52;100817.53;;;21.52;46.05
14838;BME280;7510;59.296;18.106;2022-10-26T14:18:23;100825.13;;;21.28;46.31
14838;BME280;7510;59.296;18.106;2022-10-26T14:20:59;100822.19;;;21.83;45.33
14838;BME280;7510;59.296;18.106;2022-10-26T14:26:02;100831.66;;;21.77;45.54
14838;BME280;7510;59.296;18.106;2022-10-26T14:28:31;100827.88;;;20.96;47.23
14838;BME280;7510;59.296;18.106;2022-10-26T14:31:19;100830.69;;;20.91;47.31
14838;BME280;7510;59.296;18.106;2022-10-26T14:33:45;100828.88;;;20.45;48.50
14838;BME280;7510;59.296;18.106;2022-10-26T14:36:11;100837.72;;;21.29;46.53
14838;BME280;7510;59.296;18.106;2022-10-26T14:38:47;100839.88;;;21.32;46.20
14838;BME280;7510;59.296;18.106;2022-10-26T14:41:17;100841.00;;;21.63;45.48
14838;BME280;7510;59.296;18.106;2022-10-26T14:43:43;100838.06;;;21.73;45.03
14838;BME280;7510;59.296;18.106;2022-10-26T14:46:17;100838.69;;;21.96;44.89
14838;BME280;7510;59.296;18.106;2022-10-26T14:48:58;100845.50;;;21.27;45.94
14838;BME280;7510;59.296;18.106;2022-10-26T14:51:29;100842.59;;;21.50;46.05
14838;BME280;7510;59.296;18.106;2022-10-26T14:53:57;100854.75;;;21.31;46.82
14838;BME280;7510;59.296;18.106;2022-10-26T14:58:50;100840.41;;;21.02;46.78
14838;BME280;7510;59.296;18.106;2022-10-26T15:03:51;100851.94;;;21.36;46.10
14838;BME280;7510;59.296;18.106;2022-10-26T15:08:57;100841.81;;;20.99;46.79
14838;BME280;7510;59.296;18.106;2022-10-26T15:11:27;100860.53;;;21.48;46.12
14838;BME280;7510;59.296;18.106;2022-10-26T15:13:54;100859.88;;;21.83;45.84
14838;BME280;7510;59.296;18.106;2022-10-26T15:16:26;100862.75;;;21.46;46.00
14838;BME280;7510;59.296;18.106;2022-10-26T15:19:06;100860.78;;;21.14;46.89
14838;BME280;7510;59.296;18.106;2022-10-26T15:21:35;100869.50;;;21.21;46.34
14838;BME280;7510;59.296;18.106;2022-10-26T15:24:02;100857.09;;;21.05;46.76
14838;BME280;7510;59.296;18.106;2022-10-26T15:26:41;100882.56;;;20.74;48.04
14838;BME280;7510;59.296;18.106;2022-10-26T15:29:36;100873.47;;;21.29;46.61
14838;BME280;7510;59.296;18.106;2022-10-26T15:32:03;100883.00;;;21.18;46.87
14838;BME280;7510;59.296;18.106;2022-10-26T15:34:29;100886.22;;;21.25;46.49
14838;BME280;7510;59.296;18.106;2022-10-26T15:36:55;100885.13;;;21.39;46.69
14838;BME280;7510;59.296;18.106;2022-10-26T15:39:20;100886.72;;;21.27;46.81
14838;BME280;7510;59.296;18.106;2022-10-26T15:41:47;100888.06;;;20.74;47.84
14838;BME280;7510;59.296;18.106;2022-10-26T15:44:16;100890.13;;;20.87;47.99
14838;BME280;7510;59.296;18.106;2022-10-26T15:46:44;100890.34;;;20.91;47.63
14838;BME280;7510;59.296;18.106;2022-10-26T15:49:18;100880.09;;;20.96;47.34